sensor_id;sensor_type;location;lat;lon;timestamp;temperature;humidity
18733;DHT22;9495;51.210;2.934;2023-07-20T00:00:17;18.60;99.90
18733;DHT22;9495;51.210;2.934;2023-07-20T00:02:45;18.60;99.90
18733;DHT22;9495;51.210;2.934;2023-07-20T00:05:14;18.60;99.90
18733;DHT22;9495;51.210;2.934;2023-07-20T00:07:45;18.50;99.90
18733;DHT22;9495;51.210;2.934;2023-07-20T00:10:13;18.40;99.90
18733;DHT22;9495;51.210;2.934;2023-07-20T00:12:42;18.40;99.90
18733;DHT22;9495;51.210;2.934;2023-07-20T00:15:16;18.40;99.90
18733;DHT22;9495;51.210;2.934;2023-07-20T00:17:45;18.50;99.90
18733;DHT22;9495;51.210;2.934;2023-07-20T00:20:13;18.40;99.90
18733;DHT22;9495;51.210;2.934;2023-07-20T00:22:42;18.40;99.90
18733;DHT22;9495;51.210;2.934;2023-07-20T00:25:10;18.40;99.90
18733;DHT22;9495;51.210;2.934;2023-07-20T00:27:39;18.30;99.90
18733;DHT22;9495;51.210;2.934;2023-07-20T00:30:08;18.30;99.90
18733;DHT22;9495;51.210;2.934;2023-07-20T00:32:38;18.30;99.90
18733;DHT22;9495;51.210;2.934;2023-07-20T00:35:07;18.30;99.90
18733;DHT22;9495;51.210;2.934;2023-07-20T00:37:35;18.30;99.90
18733;DHT22;9495;51.210;2.934;2023-07-20T00:40:04;18.30;99.90
18733;DHT22;9495;51.210;2.934;2023-07-20T00:42:34;18.30;99.90
18733;DHT22;9495;51.210;2.934;2023-07-20T00:45:03;18.20;99.90
18733;DHT22;9495;51.210;2.934;2023-07-20T00:47:32;18.20;99.90
18733;DHT22;9495;51.210;2.934;2023-07-20T00:50:03;18.30;99.90
18733;DHT22;9495;51.210;2.934;2023-07-20T00:52:33;18.20;99.90
18733;DHT22;9495;51.210;2.934;2023-07-20T00:55:02;18.10;99.90
18733;DHT22;9495;51.210;2.934;2023-07-20T00:57:31;18.20;99.90
18733;DHT22;9495;51.210;2.934;2023-07-20T01:00:00;18.20;99.90
18733;DHT22;9495;51.210;2.934;2023-07-20T01:02:28;18.30;99.90
18733;DHT22;9495;51.210;2.934;2023-07-20T01:04:57;18.30;99.90
18733;DHT22;9495;51.210;2.934;2023-07-20T01:07:32;18.20;99.90
18733;DHT22;9495;51.210;2.934;2023-07-20T01:10:08;18.20;99.90
18733;DHT22;9495;51.210;2.934;2023-07-20T01:12:42;18.20;99.90
18733;DHT22;9495;51.210;2.934;2023-07-20T01:15:11;18.20;99.90
18733;DHT22;9495;51.210;2.934;2023-07-20T01:17:40;18.20;99.90
18733;DHT22;9495;51.210;2.934;2023-07-20T01:20:12;18.20;99.90
18733;DHT22;9495;51.210;2.934;2023-07-20T01:26:19;18.30;99.90
18733;DHT22;9495;51.210;2.934;2023-07-20T01:29:09;18.30;99.90
18733;DHT22;9495;51.210;2.934;2023-07-20T01:31:42;18.30;99.90
18733;DHT22;9495;51.210;2.934;2023-07-20T01:34:16;18.30;99.90
18733;DHT22;9495;51.210;2.934;2023-07-20T01:36:46;18.30;99.90
18733;DHT22;9495;51.210;2.934;2023-07-20T01:39:16;18.20;99.90
18733;DHT22;9495;51.210;2.934;2023-07-20T01:41:45;18.30;99.90
18733;DHT22;9495;51.210;2.934;2023-07-20T01:44:14;18.30;99.90
18733;DHT22;9495;51.210;2.934;2023-07-20T01:46:43;18.30;99.90
18733;DHT22;9495;51.210;2.934;2023-07-20T01:49:12;18.30;99.90
18733;DHT22;9495;51.210;2.934;2023-07-20T01:51:40;18.30;99.90
18733;DHT22;9495;51.210;2.934;2023-07-20T01:54:09;18.30;99.90
18733;DHT22;9495;51.210;2.934;2023-07-20T01:56:38;18.30;99.90
18733;DHT22;9495;51.210;2.934;2023-07-20T01:59:06;18.30;99.90
18733;DHT22;9495;51.210;2.934;2023-07-20T02:01:35;18.20;99.90
18733;DHT22;9495;51.210;2.934;2023-07-20T02:04:05;18.20;99.90
18733;DHT22;9495;51.210;2.934;2023-07-20T02:06:33;18.30;99.90
18733;DHT22;9495;51.210;2.934;2023-07-20T02:09:02;18.30;99.90
18733;DHT22;9495;51.210;2.934;2023-07-20T02:11:31;18.30;99.90
18733;DHT22;9495;51.210;2.934;2023-07-20T02:13:59;18.30;99.90
18733;DHT22;9495;51.210;2.934;2023-07-20T02:16:28;18.30;99.90
18733;DHT22;9495;51.210;2.934;2023-07-20T02:18:56;18.30;99.90
18733;DHT22;9495;51.210;2.934;2023-07-20T02:21:26;18.30;99.90
18733;DHT22;9495;51.210;2.934;2023-07-20T02:23:55;18.30;99.90
18733;DHT22;9495;51.210;2.934;2023-07-20T02:26:23;18.30;99.90
18733;DHT22;9495;51.210;2.934;2023-07-20T02:28:52;18.20;99.90
18733;DHT22;9495;51.210;2.934;2023-07-20T02:31:20;18.20;99.90
18733;DHT22;9495;51.210;2.934;2023-07-20T02:33:49;18.20;99.90
18733;DHT22;9495;51.210;2.934;2023-07-20T02:36:17;18.20;99.90
18733;DHT22;9495;51.210;2.934;2023-07-20T02:38:47;18.20;99.90
18733;DHT22;9495;51.210;2.934;2023-07-20T02:41:16;18.30;99.90
18733;DHT22;9495;51.210;2.934;2023-07-20T02:43:45;18.20;99.90
18733;DHT22;9495;51.210;2.934;2023-07-20T02:46:13;18.20;99.90
18733;DHT22;9495;51.210;2.934;2023-07-20T02:48:42;18.10;99.90
18733;DHT22;9495;51.210;2.934;2023-07-20T02:51:11;18.00;99.90
18733;DHT22;9495;51.210;2.934;2023-07-20T02:53:39;18.10;99.90
18733;DHT22;9495;51.210;2.934;2023-07-20T02:56:09;18.00;99.90
18733;DHT22;9495;51.210;2.934;2023-07-20T02:58:40;18.10;99.90
18733;DHT22;9495;51.210;2.934;2023-07-20T03:01:10;18.10;99.90
18733;DHT22;9495;51.210;2.934;2023-07-20T03:03:39;18.10;99.90
18733;DHT22;9495;51.210;2.934;2023-07-20T03:06:08;18.10;99.90
18733;DHT22;9495;51.210;2.934;2023-07-20T03:08:37;18.20;99.90
18733;DHT22;9495;51.210;2.934;2023-07-20T03:11:05;18.20;99.90
18733;DHT22;9495;51.210;2.934;2023-07-20T03:13:35;18.20;99.90
18733;DHT22;9495;51.210;2.934;2023-07-20T03:16:04;18.20;99.90
18733;DHT22;9495;51.210;2.934;2023-07-20T03:18:32;18.10;99.90
18733;DHT22;9495;51.210;2.934;2023-07-20T03:21:00;18.10;99.90
18733;DHT22;9495;51.210;2.934;2023-07-20T03:23:29;18.20;99.90
18733;DHT22;9495;51.210;2.934;2023-07-20T03:25:58;18.10;99.90
18733;DHT22;9495;51.210;2.934;2023-07-20T03:28:26;18.10;99.90
18733;DHT22;9495;51.210;2.934;2023-07-20T03:30:56;18.10;99.90
18733;DHT22;9495;51.210;2.934;2023-07-20T03:33:26;18.10;99.90
18733;DHT22;9495;51.210;2.934;2023-07-20T03:35:56;18.10;99.90
18733;DHT22;9495;51.210;2.934;2023-07-20T03:38:25;18.00;99.90
18733;DHT22;9495;51.210;2.934;2023-07-20T03:40:55;18.10;99.90
18733;DHT22;9495;51.210;2.934;2023-07-20T03:43:25;18.10;99.90
18733;DHT22;9495;51.210;2.934;2023-07-20T03:45:54;18.00;99.90
18733;DHT22;9495;51.210;2.934;2023-07-20T03:48:25;18.00;99.90
18733;DHT22;9495;51.210;2.934;2023-07-20T03:50:54;18.00;99.90
18733;DHT22;9495;51.210;2.934;2023-07-20T03:53:22;18.00;99.90
18733;DHT22;9495;51.210;2.934;2023-07-20T03:55:52;18.00;99.90
18733;DHT22;9495;51.210;2.934;2023-07-20T03:58:20;18.00;99.90
18733;DHT22;9495;51.210;2.934;2023-07-20T04:00:50;18.00;99.90
18733;DHT22;9495;51.210;2.934;2023-07-20T04:03:19;18.00;99.90
18733;DHT22;9495;51.210;2.934;2023-07-20T04:05:49;18.00;99.90
18733;DHT22;9495;51.210;2.934;2023-07-20T04:08:18;18.00;99.90
18733;DHT22;9495;51.210;2.934;2023-07-20T04:10:48;18.00;99.90
18733;DHT22;9495;51.210;2.934;2023-07-20T04:13:16;18.00;99.90
18733;DHT22;9495;51.210;2.934;2023-07-20T04:15:45;17.90;99.90
18733;DHT22;9495;51.210;2.934;2023-07-20T04:18:13;17.90;99.90
18733;DHT22;9495;51.210;2.934;2023-07-20T04:20:42;17.90;99.90
18733;DHT22;9495;51.210;2.934;2023-07-20T04:23:12;17.90;99.90
18733;DHT22;9495;51.210;2.934;2023-07-20T04:25:40;17.90;99.90
18733;DHT22;9495;51.210;2.934;2023-07-20T04:28:09;17.90;99.90
18733;DHT22;9495;51.210;2.934;2023-07-20T04:30:38;18.00;99.90
18733;DHT22;9495;51.210;2.934;2023-07-20T04:33:07;18.00;99.90
18733;DHT22;9495;51.210;2.934;2023-07-20T04:35:46;17.90;99.90
18733;DHT22;9495;51.210;2.934;2023-07-20T04:38:16;17.90;99.90
18733;DHT22;9495;51.210;2.934;2023-07-20T04:40:45;17.90;99.90
18733;DHT22;9495;51.210;2.934;2023-07-20T04:43:15;17.90;99.90
18733;DHT22;9495;51.210;2.934;2023-07-20T04:45:43;17.90;99.90
18733;DHT22;9495;51.210;2.934;2023-07-20T04:48:13;17.90;99.90
18733;DHT22;9495;51.210;2.934;2023-07-20T04:50:43;17.90;99.90
18733;DHT22;9495;51.210;2.934;2023-07-20T04:53:12;17.90;99.90
18733;DHT22;9495;51.210;2.934;2023-07-20T04:55:47;17.90;99.90
18733;DHT22;9495;51.210;2.934;2023-07-20T04:58:18;17.90;99.90
18733;DHT22;9495;51.210;2.934;2023-07-20T05:00:47;17.90;99.90
18733;DHT22;9495;51.210;2.934;2023-07-20T05:03:16;17.90;99.90
18733;DHT22;9495;51.210;2.934;2023-07-20T05:05:46;17.90;99.90
18733;DHT22;9495;51.210;2.934;2023-07-20T05:08:16;18.00;99.90
18733;DHT22;9495;51.210;2.934;2023-07-20T05:10:46;18.10;99.90
18733;DHT22;9495;51.210;2.934;2023-07-20T05:13:14;18.10;99.90
18733;DHT22;9495;51.210;2.934;2023-07-20T05:15:43;18.10;99.90
18733;DHT22;9495;51.210;2.934;2023-07-20T05:18:11;18.10;99.90
18733;DHT22;9495;51.210;2.934;2023-07-20T05:20:40;18.10;99.90
18733;DHT22;9495;51.210;2.934;2023-07-20T05:23:08;18.10;99.90
18733;DHT22;9495;51.210;2.934;2023-07-20T05:25:37;18.10;99.90
18733;DHT22;9495;51.210;2.934;2023-07-20T05:28:07;18.10;99.90
18733;DHT22;9495;51.210;2.934;2023-07-20T05:30:35;18.10;99.90
18733;DHT22;9495;51.210;2.934;2023-07-20T05:33:04;18.10;99.90
18733;DHT22;9495;51.210;2.934;2023-07-20T05:35:32;18.00;99.90
18733;DHT22;9495;51.210;2.934;2023-07-20T05:38:01;18.00;99.90
18733;DHT22;9495;51.210;2.934;2023-07-20T05:40:31;18.00;99.90
18733;DHT22;9495;51.210;2.934;2023-07-20T05:42:59;18.00;99.90
18733;DHT22;9495;51.210;2.934;2023-07-20T05:45:29;18.20;99.90
18733;DHT22;9495;51.210;2.934;2023-07-20T05:47:58;18.20;99.90
18733;DHT22;9495;51.210;2.934;2023-07-20T05:50:27;18.30;99.90
18733;DHT22;9495;51.210;2.934;2023-07-20T05:52:55;18.30;99.90
18733;DHT22;9495;51.210;2.934;2023-07-20T05:55:24;18.40;99.90
18733;DHT22;9495;51.210;2.934;2023-07-20T05:57:53;18.40;99.90
18733;DHT22;9495;51.210;2.934;2023-07-20T06:00:23;18.50;99.90
18733;DHT22;9495;51.210;2.934;2023-07-20T06:02:55;18.50;99.90
18733;DHT22;9495;51.210;2.934;2023-07-20T06:05:24;18.60;99.90
18733;DHT22;9495;51.210;2.934;2023-07-20T06:07:55;18.60;99.90
18733;DHT22;9495;51.210;2.934;2023-07-20T06:10:25;19.20;99.90
18733;DHT22;9495;51.210;2.934;2023-07-20T06:12:54;18.90;99.90
18733;DHT22;9495;51.210;2.934;2023-07-20T06:15:27;18.80;99.90
18733;DHT22;9495;51.210;2.934;2023-07-20T06:17:57;19.00;99.90
18733;DHT22;9495;51.210;2.934;2023-07-20T06:20:26;18.80;99.90
18733;DHT22;9495;51.210;2.934;2023-07-20T06:22:54;18.70;99.90
18733;DHT22;9495;51.210;2.934;2023-07-20T06:25:23;18.70;99.90
18733;DHT22;9495;51.210;2.934;2023-07-20T06:27:52;18.70;99.90
18733;DHT22;9495;51.210;2.934;2023-07-20T06:30:21;18.70;99.90
18733;DHT22;9495;51.210;2.934;2023-07-20T06:32:49;18.80;99.90
18733;DHT22;9495;51.210;2.934;2023-07-20T06:35:19;18.70;99.90
18733;DHT22;9495;51.210;2.934;2023-07-20T06:37:48;18.90;99.90
18733;DHT22;9495;51.210;2.934;2023-07-20T06:40:16;19.20;99.90
18733;DHT22;9495;51.210;2.934;2023-07-20T06:42:48;19.50;99.90
18733;DHT22;9495;51.210;2.934;2023-07-20T06:45:20;19.50;99.90
18733;DHT22;9495;51.210;2.934;2023-07-20T06:47:48;19.70;99.90
18733;DHT22;9495;51.210;2.934;2023-07-20T06:50:18;19.60;99.90
18733;DHT22;9495;51.210;2.934;2023-07-20T06:52:47;19.40;99.90
18733;DHT22;9495;51.210;2.934;2023-07-20T06:55:15;19.40;99.90
18733;DHT22;9495;51.210;2.934;2023-07-20T06:57:50;20.10;99.90
18733;DHT22;9495;51.210;2.934;2023-07-20T07:00:25;20.30;99.90
18733;DHT22;9495;51.210;2.934;2023-07-20T07:02:53;19.50;99.90
18733;DHT22;9495;51.210;2.934;2023-07-20T07:05:23;19.30;99.90
18733;DHT22;9495;51.210;2.934;2023-07-20T07:08:01;19.30;99.90
18733;DHT22;9495;51.210;2.934;2023-07-20T07:10:29;19.30;99.90
18733;DHT22;9495;51.210;2.934;2023-07-20T07:12:58;19.70;99.90
18733;DHT22;9495;51.210;2.934;2023-07-20T07:15:27;19.80;99.90
18733;DHT22;9495;51.210;2.934;2023-07-20T07:17:56;19.80;99.90
18733;DHT22;9495;51.210;2.934;2023-07-20T07:20:26;19.60;99.90
18733;DHT22;9495;51.210;2.934;2023-07-20T07:22:55;19.30;99.90
18733;DHT22;9495;51.210;2.934;2023-07-20T07:25:24;19.50;99.90
18733;DHT22;9495;51.210;2.934;2023-07-20T07:27:54;19.50;99.90
18733;DHT22;9495;51.210;2.934;2023-07-20T07:30:23;19.60;99.90
18733;DHT22;9495;51.210;2.934;2023-07-20T07:32:52;19.90;99.90
18733;DHT22;9495;51.210;2.934;2023-07-20T07:35:21;19.80;99.90
18733;DHT22;9495;51.210;2.934;2023-07-20T07:37:51;19.70;99.90
18733;DHT22;9495;51.210;2.934;2023-07-20T07:40:39;19.70;99.90
18733;DHT22;9495;51.210;2.934;2023-07-20T07:43:07;19.70;99.90
18733;DHT22;9495;51.210;2.934;2023-07-20T07:45:36;19.60;99.90
18733;DHT22;9495;51.210;2.934;2023-07-20T07:48:06;19.40;99.90
18733;DHT22;9495;51.210;2.934;2023-07-20T07:50:34;19.40;99.90
18733;DHT22;9495;51.210;2.934;2023-07-20T07:53:04;19.60;99.90
18733;DHT22;9495;51.210;2.934;2023-07-20T07:55:33;19.40;99.90
18733;DHT22;9495;51.210;2.934;2023-07-20T07:58:01;19.60;99.90
18733;DHT22;9495;51.210;2.934;2023-07-20T08:00:30;20.50;99.90
18733;DHT22;9495;51.210;2.934;2023-07-20T08:02:59;20.80;99.90
18733;DHT22;9495;51.210;2.934;2023-07-20T08:05:28;21.00;99.90
18733;DHT22;9495;51.210;2.934;2023-07-20T08:07:56;20.80;99.90
18733;DHT22;9495;51.210;2.934;2023-07-20T08:10:26;20.90;99.90
18733;DHT22;9495;51.210;2.934;2023-07-20T08:12:54;20.90;99.90
18733;DHT22;9495;51.210;2.934;2023-07-20T08:15:23;20.40;99.90
18733;DHT22;9495;51.210;2.934;2023-07-20T08:17:52;20.70;99.90
18733;DHT22;9495;51.210;2.934;2023-07-20T08:20:21;20.70;99.90
18733;DHT22;9495;51.210;2.934;2023-07-20T08:22:54;20.90;99.90
18733;DHT22;9495;51.210;2.934;2023-07-20T08:25:23;20.70;99.90
18733;DHT22;9495;51.210;2.934;2023-07-20T08:27:53;20.20;99.90
18733;DHT22;9495;51.210;2.934;2023-07-20T08:30:21;20.30;99.90
18733;DHT22;9495;51.210;2.934;2023-07-20T08:32:50;20.20;99.90
18733;DHT22;9495;51.210;2.934;2023-07-20T08:35:19;20.20;99.90
18733;DHT22;9495;51.210;2.934;2023-07-20T08:37:49;20.10;99.90
18733;DHT22;9495;51.210;2.934;2023-07-20T08:40:18;20.10;99.90
18733;DHT22;9495;51.210;2.934;2023-07-20T08:42:46;20.30;99.90
18733;DHT22;9495;51.210;2.934;2023-07-20T08:45:18;20.30;99.90
18733;DHT22;9495;51.210;2.934;2023-07-20T08:47:47;20.30;99.90
18733;DHT22;9495;51.210;2.934;2023-07-20T08:50:17;20.50;99.90
18733;DHT22;9495;51.210;2.934;2023-07-20T08:52:46;20.70;99.90
18733;DHT22;9495;51.210;2.934;2023-07-20T08:55:15;20.60;99.90
18733;DHT22;9495;51.210;2.934;2023-07-20T08:57:45;20.60;99.90
18733;DHT22;9495;51.210;2.934;2023-07-20T09:00:17;20.40;99.90
18733;DHT22;9495;51.210;2.934;2023-07-20T09:02:46;20.70;99.90
18733;DHT22;9495;51.210;2.934;2023-07-20T09:05:16;20.80;99.90
18733;DHT22;9495;51.210;2.934;2023-07-20T09:07:44;21.20;99.90
18733;DHT22;9495;51.210;2.934;2023-07-20T09:10:13;21.10;99.90
18733;DHT22;9495;51.210;2.934;2023-07-20T09:12:43;20.80;99.90
18733;DHT22;9495;51.210;2.934;2023-07-20T09:15:12;21.20;99.90
18733;DHT22;9495;51.210;2.934;2023-07-20T09:17:45;21.40;99.90
18733;DHT22;9495;51.210;2.934;2023-07-20T09:20:15;21.60;99.90
18733;DHT22;9495;51.210;2.934;2023-07-20T09:22:50;21.10;99.90
18733;DHT22;9495;51.210;2.934;2023-07-20T09:25:20;20.80;99.90
18733;DHT22;9495;51.210;2.934;2023-07-20T09:27:51;20.90;99.90
18733;DHT22;9495;51.210;2.934;2023-07-20T09:30:25;20.70;99.90
18733;DHT22;9495;51.210;2.934;2023-07-20T09:32:58;20.70;99.90
18733;DHT22;9495;51.210;2.934;2023-07-20T09:35:27;20.70;99.90
18733;DHT22;9495;51.210;2.934;2023-07-20T09:38:07;20.80;99.90
18733;DHT22;9495;51.210;2.934;2023-07-20T09:40:40;21.30;99.90
18733;DHT22;9495;51.210;2.934;2023-07-20T09:43:12;21.70;99.90
18733;DHT22;9495;51.210;2.934;2023-07-20T09:45:43;21.70;99.90
18733;DHT22;9495;51.210;2.934;2023-07-20T09:48:16;21.40;99.90
18733;DHT22;9495;51.210;2.934;2023-07-20T09:50:52;20.80;99.90
18733;DHT22;9495;51.210;2.934;2023-07-20T09:53:21;20.50;99.90
18733;DHT22;9495;51.210;2.934;2023-07-20T09:55:52;20.70;99.90
18733;DHT22;9495;51.210;2.934;2023-07-20T09:58:22;20.90;99.90
18733;DHT22;9495;51.210;2.934;2023-07-20T10:00:51;21.30;99.90
18733;DHT22;9495;51.210;2.934;2023-07-20T10:03:26;20.80;99.90
18733;DHT22;9495;51.210;2.934;2023-07-20T10:06:03;20.70;99.90
18733;DHT22;9495;51.210;2.934;2023-07-20T10:08:36;21.00;99.90
18733;DHT22;9495;51.210;2.934;2023-07-20T10:11:10;20.80;99.90
18733;DHT22;9495;51.210;2.934;2023-07-20T10:13:41;20.70;99.90
18733;DHT22;9495;51.210;2.934;2023-07-20T10:16:14;20.60;99.90
18733;DHT22;9495;51.210;2.934;2023-07-20T10:18:49;20.60;99.90
18733;DHT22;9495;51.210;2.934;2023-07-20T10:21:20;20.50;99.90
18733;DHT22;9495;51.210;2.934;2023-07-20T10:23:53;21.30;99.90
18733;DHT22;9495;51.210;2.934;2023-07-20T10:26:25;21.10;99.90
18733;DHT22;9495;51.210;2.934;2023-07-20T10:28:54;21.70;99.90
18733;DHT22;9495;51.210;2.934;2023-07-20T10:31:24;21.80;99.90
18733;DHT22;9495;51.210;2.934;2023-07-20T10:33:58;22.00;99.90
18733;DHT22;9495;51.210;2.934;2023-07-20T10:36:27;22.00;99.90
18733;DHT22;9495;51.210;2.934;2023-07-20T10:38:58;21.70;99.90
18733;DHT22;9495;51.210;2.934;2023-07-20T10:41:29;21.70;99.90
18733;DHT22;9495;51.210;2.934;2023-07-20T10:44:00;21.70;99.90
18733;DHT22;9495;51.210;2.934;2023-07-20T10:46:36;22.00;99.90
18733;DHT22;9495;51.210;2.934;2023-07-20T10:49:11;21.90;99.90
18733;DHT22;9495;51.210;2.934;2023-07-20T10:51:40;21.60;99.90
18733;DHT22;9495;51.210;2.934;2023-07-20T10:54:33;21.60;99.90
18733;DHT22;9495;51.210;2.934;2023-07-20T10:57:28;21.90;99.90
18733;DHT22;9495;51.210;2.934;2023-07-20T11:00:11;22.10;99.90
18733;DHT22;9495;51.210;2.934;2023-07-20T11:02:46;22.10;99.90
18733;DHT22;9495;51.210;2.934;2023-07-20T11:05:38;21.70;99.90
18733;DHT22;9495;51.210;2.934;2023-07-20T11:08:11;21.70;99.90
18733;DHT22;9495;51.210;2.934;2023-07-20T11:10:40;21.30;99.90
18733;DHT22;9495;51.210;2.934;2023-07-20T11:13:21;21.40;99.90
18733;DHT22;9495;51.210;2.934;2023-07-20T11:16:03;21.10;99.90
18733;DHT22;9495;51.210;2.934;2023-07-20T11:18:35;21.10;99.90
18733;DHT22;9495;51.210;2.934;2023-07-20T11:21:09;21.50;99.90
18733;DHT22;9495;51.210;2.934;2023-07-20T11:23:39;21.20;99.90
18733;DHT22;9495;51.210;2.934;2023-07-20T11:26:08;21.30;99.90
18733;DHT22;9495;51.210;2.934;2023-07-20T11:28:38;21.40;99.90
18733;DHT22;9495;51.210;2.934;2023-07-20T11:31:06;21.40;99.90
18733;DHT22;9495;51.210;2.934;2023-07-20T11:33:35;21.50;99.90
18733;DHT22;9495;51.210;2.934;2023-07-20T11:36:04;21.40;99.90
18733;DHT22;9495;51.210;2.934;2023-07-20T11:38:55;21.70;99.90
18733;DHT22;9495;51.210;2.934;2023-07-20T11:41:24;21.90;99.90
18733;DHT22;9495;51.210;2.934;2023-07-20T11:43:54;22.00;99.90
18733;DHT22;9495;51.210;2.934;2023-07-20T11:46:23;21.70;99.90
18733;DHT22;9495;51.210;2.934;2023-07-20T11:48:57;21.40;99.90
18733;DHT22;9495;51.210;2.934;2023-07-20T11:51:26;21.30;99.90
18733;DHT22;9495;51.210;2.934;2023-07-20T11:53:57;21.20;99.90
18733;DHT22;9495;51.210;2.934;2023-07-20T11:56:26;21.10;99.90
18733;DHT22;9495;51.210;2.934;2023-07-20T11:58:56;21.20;99.90
18733;DHT22;9495;51.210;2.934;2023-07-20T12:01:27;21.00;99.90
18733;DHT22;9495;51.210;2.934;2023-07-20T12:03:57;21.40;99.90
18733;DHT22;9495;51.210;2.934;2023-07-20T12:06:27;21.20;99.90
18733;DHT22;9495;51.210;2.934;2023-07-20T12:08:58;21.00;99.90
18733;DHT22;9495;51.210;2.934;2023-07-20T12:11:34;21.00;99.90
18733;DHT22;9495;51.210;2.934;2023-07-20T12:14:03;20.90;99.90
18733;DHT22;9495;51.210;2.934;2023-07-20T12:16:43;21.20;99.90
18733;DHT22;9495;51.210;2.934;2023-07-20T12:19:12;21.50;99.90
18733;DHT22;9495;51.210;2.934;2023-07-20T12:21:42;21.50;99.90
18733;DHT22;9495;51.210;2.934;2023-07-20T12:24:12;21.60;99.90
18733;DHT22;9495;51.210;2.934;2023-07-20T12:26:40;21.70;99.90
18733;DHT22;9495;51.210;2.934;2023-07-20T12:29:09;22.00;99.90
18733;DHT22;9495;51.210;2.934;2023-07-20T12:31:37;21.80;99.90
18733;DHT22;9495;51.210;2.934;2023-07-20T12:34:06;21.90;99.90
18733;DHT22;9495;51.210;2.934;2023-07-20T12:36:36;21.90;99.90
18733;DHT22;9495;51.210;2.934;2023-07-20T12:39:04;22.30;99.90
18733;DHT22;9495;51.210;2.934;2023-07-20T12:41:34;21.90;99.90
18733;DHT22;9495;51.210;2.934;2023-07-20T12:44:03;21.60;99.90
18733;DHT22;9495;51.210;2.934;2023-07-20T12:46:32;21.30;99.90
18733;DHT22;9495;51.210;2.934;2023-07-20T12:49:04;21.60;99.90
18733;DHT22;9495;51.210;2.934;2023-07-20T12:51:32;21.70;99.90
18733;DHT22;9495;51.210;2.934;2023-07-20T12:54:01;21.90;99.90
18733;DHT22;9495;51.210;2.934;2023-07-20T12:56:30;22.30;99.90
18733;DHT22;9495;51.210;2.934;2023-07-20T12:59:02;21.80;99.90
18733;DHT22;9495;51.210;2.934;2023-07-20T13:01:33;22.00;99.90
18733;DHT22;9495;51.210;2.934;2023-07-20T13:04:01;21.80;99.90
18733;DHT22;9495;51.210;2.934;2023-07-20T13:06:33;21.60;99.90
18733;DHT22;9495;51.210;2.934;2023-07-20T13:09:03;21.90;99.90
18733;DHT22;9495;51.210;2.934;2023-07-20T13:11:32;22.10;99.90
18733;DHT22;9495;51.210;2.934;2023-07-20T13:14:01;21.90;99.90
18733;DHT22;9495;51.210;2.934;2023-07-20T13:16:30;21.80;99.90
18733;DHT22;9495;51.210;2.934;2023-07-20T13:18:59;21.70;99.90
18733;DHT22;9495;51.210;2.934;2023-07-20T13:21:27;22.00;99.90
18733;DHT22;9495;51.210;2.934;2023-07-20T13:23:56;22.10;99.90
18733;DHT22;9495;51.210;2.934;2023-07-20T13:26:25;21.90;99.90
18733;DHT22;9495;51.210;2.934;2023-07-20T13:28:53;22.00;99.90
18733;DHT22;9495;51.210;2.934;2023-07-20T13:31:23;22.00;99.90
18733;DHT22;9495;51.210;2.934;2023-07-20T13:33:52;22.00;99.90
18733;DHT22;9495;51.210;2.934;2023-07-20T13:36:26;21.80;99.90
18733;DHT22;9495;51.210;2.934;2023-07-20T13:38:56;21.50;99.90
18733;DHT22;9495;51.210;2.934;2023-07-20T13:41:26;21.90;99.90
18733;DHT22;9495;51.210;2.934;2023-07-20T13:43:56;22.10;99.90
18733;DHT22;9495;51.210;2.934;2023-07-20T13:46:26;22.10;99.90
18733;DHT22;9495;51.210;2.934;2023-07-20T13:48:58;22.30;99.90
18733;DHT22;9495;51.210;2.934;2023-07-20T13:51:26;22.30;99.90
18733;DHT22;9495;51.210;2.934;2023-07-20T13:53:56;22.20;99.90
18733;DHT22;9495;51.210;2.934;2023-07-20T13:56:25;22.00;99.90
18733;DHT22;9495;51.210;2.934;2023-07-20T13:58:54;22.00;99.90
18733;DHT22;9495;51.210;2.934;2023-07-20T14:01:26;22.20;99.90
18733;DHT22;9495;51.210;2.934;2023-07-20T14:03:56;21.90;99.90
18733;DHT22;9495;51.210;2.934;2023-07-20T14:06:32;22.10;99.90
18733;DHT22;9495;51.210;2.934;2023-07-20T14:09:01;22.40;99.90
18733;DHT22;9495;51.210;2.934;2023-07-20T14:11:30;22.50;99.90
18733;DHT22;9495;51.210;2.934;2023-07-20T14:14:02;22.70;99.90
18733;DHT22;9495;51.210;2.934;2023-07-20T14:16:32;22.70;99.90
18733;DHT22;9495;51.210;2.934;2023-07-20T14:19:00;22.70;99.90
18733;DHT22;9495;51.210;2.934;2023-07-20T14:21:30;22.70;99.90
18733;DHT22;9495;51.210;2.934;2023-07-20T14:24:00;22.70;99.90
18733;DHT22;9495;51.210;2.934;2023-07-20T14:26:29;22.80;99.90
18733;DHT22;9495;51.210;2.934;2023-07-20T14:28:59;22.80;99.90
18733;DHT22;9495;51.210;2.934;2023-07-20T14:31:28;22.90;99.90
18733;DHT22;9495;51.210;2.934;2023-07-20T14:34:00;22.90;99.90
18733;DHT22;9495;51.210;2.934;2023-07-20T14:36:29;22.90;99.90
18733;DHT22;9495;51.210;2.934;2023-07-20T14:39:00;23.00;99.90
18733;DHT22;9495;51.210;2.934;2023-07-20T14:41:29;22.80;99.90
18733;DHT22;9495;51.210;2.934;2023-07-20T14:43:57;22.90;99.90
18733;DHT22;9495;51.210;2.934;2023-07-20T14:46:26;23.00;99.90
18733;DHT22;9495;51.210;2.934;2023-07-20T14:48:54;23.10;99.90
18733;DHT22;9495;51.210;2.934;2023-07-20T14:51:24;23.20;99.90
18733;DHT22;9495;51.210;2.934;2023-07-20T14:54:04;23.20;99.90
18733;DHT22;9495;51.210;2.934;2023-07-20T14:56:33;23.30;99.90
18733;DHT22;9495;51.210;2.934;2023-07-20T14:59:02;23.20;99.90
18733;DHT22;9495;51.210;2.934;2023-07-20T15:01:31;23.30;99.90
18733;DHT22;9495;51.210;2.934;2023-07-20T15:04:00;23.30;99.90
18733;DHT22;9495;51.210;2.934;2023-07-20T15:06:30;23.20;99.90
18733;DHT22;9495;51.210;2.934;2023-07-20T15:08:59;23.30;99.90
18733;DHT22;9495;51.210;2.934;2023-07-20T15:11:28;23.40;99.90
18733;DHT22;9495;51.210;2.934;2023-07-20T15:13:56;23.40;99.90
18733;DHT22;9495;51.210;2.934;2023-07-20T15:16:25;23.40;99.90
18733;DHT22;9495;51.210;2.934;2023-07-20T15:18:54;23.20;99.90
18733;DHT22;9495;51.210;2.934;2023-07-20T15:21:23;22.90;99.90
18733;DHT22;9495;51.210;2.934;2023-07-20T15:23:54;23.10;99.90
18733;DHT22;9495;51.210;2.934;2023-07-20T15:26:22;23.20;99.90
18733;DHT22;9495;51.210;2.934;2023-07-20T15:28:51;23.10;99.90
18733;DHT22;9495;51.210;2.934;2023-07-20T15:31:20;23.00;99.90
18733;DHT22;9495;51.210;2.934;2023-07-20T15:34:08;23.00;99.90
18733;DHT22;9495;51.210;2.934;2023-07-20T15:36:40;23.10;99.90
18733;DHT22;9495;51.210;2.934;2023-07-20T15:39:10;22.60;99.90
18733;DHT22;9495;51.210;2.934;2023-07-20T15:41:39;22.50;99.90
18733;DHT22;9495;51.210;2.934;2023-07-20T15:44:08;22.80;99.90
18733;DHT22;9495;51.210;2.934;2023-07-20T15:46:45;22.60;99.90
18733;DHT22;9495;51.210;2.934;2023-07-20T15:49:16;22.50;99.90
18733;DHT22;9495;51.210;2.934;2023-07-20T15:51:44;22.40;99.90
18733;DHT22;9495;51.210;2.934;2023-07-20T15:54:15;22.50;99.90
18733;DHT22;9495;51.210;2.934;2023-07-20T15:56:44;22.40;99.90
18733;DHT22;9495;51.210;2.934;2023-07-20T15:59:13;22.00;99.90
18733;DHT22;9495;51.210;2.934;2023-07-20T16:01:43;22.30;99.90
18733;DHT22;9495;51.210;2.934;2023-07-20T16:04:13;22.40;99.90
18733;DHT22;9495;51.210;2.934;2023-07-20T16:06:42;22.30;99.90